sensor_id;sensor_type;location;lat;lon;timestamp;P1;durP1;ratioP1;P2;durP2;ratioP2
10831;SDS011;5469;48.574;8.768;2022-08-19T00:00:31;6.43;;;4.47;;
10831;SDS011;5469;48.574;8.768;2022-08-19T00:03:06;7.50;;;5.68;;
10831;SDS011;5469;48.574;8.768;2022-08-19T00:05:43;5.80;;;5.00;;
10831;SDS011;5469;48.574;8.768;2022-08-19T00:08:18;5.47;;;4.30;;
10831;SDS011;5469;48.574;8.768;2022-08-19T00:10:53;7.18;;;4.68;;
10831;SDS011;5469;48.574;8.768;2022-08-19T00:13:30;7.30;;;5.38;;
10831;SDS011;5469;48.574;8.768;2022-08-19T00:16:05;6.05;;;4.50;;
10831;SDS011;5469;48.574;8.768;2022-08-19T00:18:44;9.25;;;5.15;;
10831;SDS011;5469;48.574;8.768;2022-08-19T00:21:19;5.72;;;4.80;;
10831;SDS011;5469;48.574;8.768;2022-08-19T00:23:54;8.32;;;5.75;;
10831;SDS011;5469;48.574;8.768;2022-08-19T00:26:30;6.10;;;4.95;;
10831;SDS011;5469;48.574;8.768;2022-08-19T00:29:07;6.68;;;5.20;;
10831;SDS011;5469;48.574;8.768;2022-08-19T00:31:44;5.20;;;4.60;;
10831;SDS011;5469;48.574;8.768;2022-08-19T00:34:21;7.93;;;5.20;;
10831;SDS011;5469;48.574;8.768;2022-08-19T00:36:58;11.80;;;6.28;;
10831;SDS011;5469;48.574;8.768;2022-08-19T00:39:33;7.53;;;5.60;;
10831;SDS011;5469;48.574;8.768;2022-08-19T00:42:09;8.38;;;5.40;;
10831;SDS011;5469;48.574;8.768;2022-08-19T00:44:46;7.63;;;5.18;;
10831;SDS011;5469;48.574;8.768;2022-08-19T00:47:22;6.70;;;5.25;;
10831;SDS011;5469;48.574;8.768;2022-08-19T00:49:57;6.50;;;5.28;;
10831;SDS011;5469;48.574;8.768;2022-08-19T00:52:33;7.57;;;4.95;;
10831;SDS011;5469;48.574;8.768;2022-08-19T00:55:15;7.35;;;5.05;;
10831;SDS011;5469;48.574;8.768;2022-08-19T00:57:54;6.72;;;4.78;;
10831;SDS011;5469;48.574;8.768;2022-08-19T01:00:35;7.55;;;4.90;;
10831;SDS011;5469;48.574;8.768;2022-08-19T01:03:12;10.02;;;5.43;;
10831;SDS011;5469;48.574;8.768;2022-08-19T01:05:50;12.48;;;6.07;;
10831;SDS011;5469;48.574;8.768;2022-08-19T01:08:27;9.00;;;5.72;;
10831;SDS011;5469;48.574;8.768;2022-08-19T01:11:02;7.68;;;5.70;;
10831;SDS011;5469;48.574;8.768;2022-08-19T01:13:39;7.10;;;5.43;;
10831;SDS011;5469;48.574;8.768;2022-08-19T01:16:18;7.75;;;5.53;;
10831;SDS011;5469;48.574;8.768;2022-08-19T01:18:56;10.98;;;5.40;;
10831;SDS011;5469;48.574;8.768;2022-08-19T01:21:32;6.40;;;4.95;;
10831;SDS011;5469;48.574;8.768;2022-08-19T01:24:13;7.57;;;5.05;;
10831;SDS011;5469;48.574;8.768;2022-08-19T01:26:48;8.93;;;5.80;;
10831;SDS011;5469;48.574;8.768;2022-08-19T01:29:23;6.50;;;4.63;;
10831;SDS011;5469;48.574;8.768;2022-08-19T01:31:58;7.03;;;5.60;;
10831;SDS011;5469;48.574;8.768;2022-08-19T01:34:33;9.45;;;5.55;;
10831;SDS011;5469;48.574;8.768;2022-08-19T01:37:09;7.22;;;5.03;;
10831;SDS011;5469;48.574;8.768;2022-08-19T01:39:46;6.25;;;4.90;;
10831;SDS011;5469;48.574;8.768;2022-08-19T01:42:22;6.00;;;5.30;;
10831;SDS011;5469;48.574;8.768;2022-08-19T01:44:57;7.95;;;5.25;;
10831;SDS011;5469;48.574;8.768;2022-08-19T01:47:32;7.10;;;5.80;;
10831;SDS011;5469;48.574;8.768;2022-08-19T01:50:09;11.35;;;6.30;;
10831;SDS011;5469;48.574;8.768;2022-08-19T01:52:45;9.10;;;5.35;;
10831;SDS011;5469;48.574;8.768;2022-08-19T01:55:22;8.57;;;6.63;;
10831;SDS011;5469;48.574;8.768;2022-08-19T01:57:58;10.88;;;5.78;;
10831;SDS011;5469;48.574;8.768;2022-08-19T02:00:37;8.02;;;5.80;;
10831;SDS011;5469;48.574;8.768;2022-08-19T02:03:12;9.68;;;5.78;;
10831;SDS011;5469;48.574;8.768;2022-08-19T02:05:53;8.38;;;5.72;;
10831;SDS011;5469;48.574;8.768;2022-08-19T02:08:31;9.00;;;5.65;;
10831;SDS011;5469;48.574;8.768;2022-08-19T02:11:17;7.88;;;5.15;;
10831;SDS011;5469;48.574;8.768;2022-08-19T02:13:52;9.88;;;6.50;;
10831;SDS011;5469;48.574;8.768;2022-08-19T02:16:28;8.68;;;5.80;;
10831;SDS011;5469;48.574;8.768;2022-08-19T02:19:03;6.90;;;5.45;;
10831;SDS011;5469;48.574;8.768;2022-08-19T02:21:39;5.97;;;5.32;;
10831;SDS011;5469;48.574;8.768;2022-08-19T02:24:15;8.20;;;6.00;;
10831;SDS011;5469;48.574;8.768;2022-08-19T02:26:51;7.40;;;5.65;;
10831;SDS011;5469;48.574;8.768;2022-08-19T02:29:26;7.97;;;5.68;;
10831;SDS011;5469;48.574;8.768;2022-08-19T02:32:01;7.55;;;5.70;;
10831;SDS011;5469;48.574;8.768;2022-08-19T02:34:37;7.68;;;5.68;;
10831;SDS011;5469;48.574;8.768;2022-08-19T02:37:12;7.65;;;5.57;;
10831;SDS011;5469;48.574;8.768;2022-08-19T02:40:01;7.40;;;5.45;;
10831;SDS011;5469;48.574;8.768;2022-08-19T02:42:39;7.97;;;6.07;;
10831;SDS011;5469;48.574;8.768;2022-08-19T02:45:15;7.00;;;5.20;;
10831;SDS011;5469;48.574;8.768;2022-08-19T02:47:50;7.35;;;5.00;;
10831;SDS011;5469;48.574;8.768;2022-08-19T02:50:25;9.68;;;5.53;;
10831;SDS011;5469;48.574;8.768;2022-08-19T02:53:00;7.03;;;5.50;;
10831;SDS011;5469;48.574;8.768;2022-08-19T02:55:35;7.93;;;6.00;;
10831;SDS011;5469;48.574;8.768;2022-08-19T02:58:16;8.55;;;5.80;;
10831;SDS011;5469;48.574;8.768;2022-08-19T03:00:53;8.57;;;5.60;;
10831;SDS011;5469;48.574;8.768;2022-08-19T03:03:31;6.97;;;5.57;;
10831;SDS011;5469;48.574;8.768;2022-08-19T03:06:07;8.05;;;5.50;;
10831;SDS011;5469;48.574;8.768;2022-08-19T03:08:46;9.60;;;5.78;;
10831;SDS011;5469;48.574;8.768;2022-08-19T03:11:22;8.63;;;5.95;;
10831;SDS011;5469;48.574;8.768;2022-08-19T03:14:01;8.07;;;5.78;;
10831;SDS011;5469;48.574;8.768;2022-08-19T03:16:40;9.80;;;6.50;;
10831;SDS011;5469;48.574;8.768;2022-08-19T03:19:19;9.43;;;6.65;;
10831;SDS011;5469;48.574;8.768;2022-08-19T03:21:54;7.93;;;5.63;;
10831;SDS011;5469;48.574;8.768;2022-08-19T03:24:30;8.27;;;6.15;;
10831;SDS011;5469;48.574;8.768;2022-08-19T03:27:05;9.98;;;6.28;;
10831;SDS011;5469;48.574;8.768;2022-08-19T03:29:42;8.82;;;6.70;;
10831;SDS011;5469;48.574;8.768;2022-08-19T03:32:19;9.02;;;6.18;;
10831;SDS011;5469;48.574;8.768;2022-08-19T03:34:54;7.35;;;6.20;;
10831;SDS011;5469;48.574;8.768;2022-08-19T03:37:29;8.40;;;6.13;;
10831;SDS011;5469;48.574;8.768;2022-08-19T03:40:04;10.48;;;6.43;;
10831;SDS011;5469;48.574;8.768;2022-08-19T03:42:41;10.35;;;6.60;;
10831;SDS011;5469;48.574;8.768;2022-08-19T03:45:19;9.23;;;6.70;;
10831;SDS011;5469;48.574;8.768;2022-08-19T03:47:54;10.27;;;7.20;;
10831;SDS011;5469;48.574;8.768;2022-08-19T03:50:30;9.02;;;6.45;;
10831;SDS011;5469;48.574;8.768;2022-08-19T03:53:05;10.02;;;6.57;;
10831;SDS011;5469;48.574;8.768;2022-08-19T03:55:41;10.75;;;6.85;;
10831;SDS011;5469;48.574;8.768;2022-08-19T03:58:16;9.02;;;6.20;;
10831;SDS011;5469;48.574;8.768;2022-08-19T04:00:52;7.80;;;6.25;;
10831;SDS011;5469;48.574;8.768;2022-08-19T04:03:28;8.88;;;6.40;;
10831;SDS011;5469;48.574;8.768;2022-08-19T04:06:09;9.35;;;6.53;;
10831;SDS011;5469;48.574;8.768;2022-08-19T04:08:44;9.55;;;6.28;;
10831;SDS011;5469;48.574;8.768;2022-08-19T04:11:24;10.57;;;6.40;;
10831;SDS011;5469;48.574;8.768;2022-08-19T04:14:01;12.10;;;6.43;;
10831;SDS011;5469;48.574;8.768;2022-08-19T04:16:37;9.07;;;6.47;;
10831;SDS011;5469;48.574;8.768;2022-08-19T04:19:14;9.98;;;6.70;;
10831;SDS011;5469;48.574;8.768;2022-08-19T04:21:51;10.10;;;7.00;;
10831;SDS011;5469;48.574;8.768;2022-08-19T04:24:27;10.37;;;7.07;;
10831;SDS011;5469;48.574;8.768;2022-08-19T04:27:03;8.93;;;6.15;;
10831;SDS011;5469;48.574;8.768;2022-08-19T04:29:38;10.17;;;7.10;;
10831;SDS011;5469;48.574;8.768;2022-08-19T04:32:14;11.07;;;8.03;;
10831;SDS011;5469;48.574;8.768;2022-08-19T04:34:49;9.68;;;6.95;;
10831;SDS011;5469;48.574;8.768;2022-08-19T04:37:26;8.32;;;6.57;;
10831;SDS011;5469;48.574;8.768;2022-08-19T04:40:05;9.87;;;7.33;;
10831;SDS011;5469;48.574;8.768;2022-08-19T04:43:00;9.67;;;7.37;;
10831;SDS011;5469;48.574;8.768;2022-08-19T04:45:35;9.80;;;6.57;;
10831;SDS011;5469;48.574;8.768;2022-08-19T04:48:13;8.20;;;6.33;;
10831;SDS011;5469;48.574;8.768;2022-08-19T04:50:49;6.93;;;6.13;;
10831;SDS011;5469;48.574;8.768;2022-08-19T04:53:29;8.73;;;6.70;;
10831;SDS011;5469;48.574;8.768;2022-08-19T04:56:08;10.70;;;6.53;;
10831;SDS011;5469;48.574;8.768;2022-08-19T04:58:44;11.15;;;6.45;;
10831;SDS011;5469;48.574;8.768;2022-08-19T05:01:23;9.77;;;6.73;;
10831;SDS011;5469;48.574;8.768;2022-08-19T05:04:03;11.10;;;6.85;;
10831;SDS011;5469;48.574;8.768;2022-08-19T05:06:39;12.60;;;6.93;;
10831;SDS011;5469;48.574;8.768;2022-08-19T05:09:15;9.35;;;6.78;;
10831;SDS011;5469;48.574;8.768;2022-08-19T05:11:51;12.60;;;7.45;;
10831;SDS011;5469;48.574;8.768;2022-08-19T05:14:26;13.85;;;6.80;;
10831;SDS011;5469;48.574;8.768;2022-08-19T05:17:01;10.40;;;6.43;;
10831;SDS011;5469;48.574;8.768;2022-08-19T05:19:37;11.63;;;7.80;;
10831;SDS011;5469;48.574;8.768;2022-08-19T05:22:31;9.07;;;6.93;;
10831;SDS011;5469;48.574;8.768;2022-08-19T05:25:09;11.03;;;6.90;;
10831;SDS011;5469;48.574;8.768;2022-08-19T05:27:45;10.30;;;6.45;;
10831;SDS011;5469;48.574;8.768;2022-08-19T05:30:21;8.82;;;6.78;;
10831;SDS011;5469;48.574;8.768;2022-08-19T05:32:57;8.50;;;6.32;;
10831;SDS011;5469;48.574;8.768;2022-08-19T05:35:33;9.40;;;6.80;;
10831;SDS011;5469;48.574;8.768;2022-08-19T05:38:08;9.27;;;6.60;;
10831;SDS011;5469;48.574;8.768;2022-08-19T05:40:43;10.97;;;6.90;;
10831;SDS011;5469;48.574;8.768;2022-08-19T05:43:21;10.23;;;6.53;;
10831;SDS011;5469;48.574;8.768;2022-08-19T05:45:57;8.77;;;6.28;;
10831;SDS011;5469;48.574;8.768;2022-08-19T05:48:32;13.40;;;8.13;;
10831;SDS011;5469;48.574;8.768;2022-08-19T05:51:08;9.18;;;6.80;;
10831;SDS011;5469;48.574;8.768;2022-08-19T05:53:43;11.70;;;7.50;;
10831;SDS011;5469;48.574;8.768;2022-08-19T05:56:18;11.05;;;6.72;;
10831;SDS011;5469;48.574;8.768;2022-08-19T05:58:54;9.33;;;7.00;;
10831;SDS011;5469;48.574;8.768;2022-08-19T06:01:30;9.90;;;7.13;;
10831;SDS011;5469;48.574;8.768;2022-08-19T06:04:05;8.87;;;6.20;;
10831;SDS011;5469;48.574;8.768;2022-08-19T06:06:42;9.53;;;6.60;;
10831;SDS011;5469;48.574;8.768;2022-08-19T06:09:17;12.83;;;7.60;;
10831;SDS011;5469;48.574;8.768;2022-08-19T06:11:54;9.27;;;6.70;;
10831;SDS011;5469;48.574;8.768;2022-08-19T06:14:32;9.52;;;7.28;;
10831;SDS011;5469;48.574;8.768;2022-08-19T06:17:07;12.25;;;7.15;;
10831;SDS011;5469;48.574;8.768;2022-08-19T06:19:43;11.53;;;7.37;;
10831;SDS011;5469;48.574;8.768;2022-08-19T06:22:20;9.07;;;6.70;;
10831;SDS011;5469;48.574;8.768;2022-08-19T06:24:55;9.43;;;6.80;;
10831;SDS011;5469;48.574;8.768;2022-08-19T06:27:30;9.17;;;6.53;;
10831;SDS011;5469;48.574;8.768;2022-08-19T06:30:05;10.30;;;7.37;;
10831;SDS011;5469;48.574;8.768;2022-08-19T06:32:43;8.93;;;6.87;;
10831;SDS011;5469;48.574;8.768;2022-08-19T06:35:18;10.03;;;6.97;;
10831;SDS011;5469;48.574;8.768;2022-08-19T06:37:55;14.77;;;6.70;;
10831;SDS011;5469;48.574;8.768;2022-08-19T06:40:30;10.57;;;6.90;;
10831;SDS011;5469;48.574;8.768;2022-08-19T06:43:07;9.30;;;6.83;;
10831;SDS011;5469;48.574;8.768;2022-08-19T06:45:42;8.53;;;6.67;;
10831;SDS011;5469;48.574;8.768;2022-08-19T06:48:18;13.50;;;8.10;;
10831;SDS011;5469;48.574;8.768;2022-08-19T06:50:54;10.17;;;6.83;;
10831;SDS011;5469;48.574;8.768;2022-08-19T06:53:30;9.13;;;7.17;;
10831;SDS011;5469;48.574;8.768;2022-08-19T06:56:05;9.00;;;6.67;;
10831;SDS011;5469;48.574;8.768;2022-08-19T06:58:41;9.47;;;6.60;;
10831;SDS011;5469;48.574;8.768;2022-08-19T07:01:16;9.53;;;6.40;;
10831;SDS011;5469;48.574;8.768;2022-08-19T07:03:52;10.23;;;7.20;;
10831;SDS011;5469;48.574;8.768;2022-08-19T07:06:28;9.13;;;6.40;;
10831;SDS011;5469;48.574;8.768;2022-08-19T07:09:06;10.53;;;6.87;;
10831;SDS011;5469;48.574;8.768;2022-08-19T07:11:44;10.57;;;6.27;;
10831;SDS011;5469;48.574;8.768;2022-08-19T07:14:22;9.20;;;6.83;;
10831;SDS011;5469;48.574;8.768;2022-08-19T07:16:59;9.90;;;7.40;;
10831;SDS011;5469;48.574;8.768;2022-08-19T07:19:34;8.93;;;6.07;;
10831;SDS011;5469;48.574;8.768;2022-08-19T07:22:10;8.07;;;6.30;;
10831;SDS011;5469;48.574;8.768;2022-08-19T07:24:47;7.57;;;5.67;;
10831;SDS011;5469;48.574;8.768;2022-08-19T07:27:23;9.00;;;5.77;;
10831;SDS011;5469;48.574;8.768;2022-08-19T07:29:58;8.63;;;6.27;;
10831;SDS011;5469;48.574;8.768;2022-08-19T07:32:33;7.50;;;5.67;;
10831;SDS011;5469;48.574;8.768;2022-08-19T07:35:08;7.90;;;5.53;;
10831;SDS011;5469;48.574;8.768;2022-08-19T07:37:44;9.87;;;6.27;;
10831;SDS011;5469;48.574;8.768;2022-08-19T07:40:21;7.70;;;5.90;;
10831;SDS011;5469;48.574;8.768;2022-08-19T07:42:56;7.53;;;5.50;;
10831;SDS011;5469;48.574;8.768;2022-08-19T07:45:33;7.97;;;5.83;;
10831;SDS011;5469;48.574;8.768;2022-08-19T07:48:08;8.43;;;6.17;;
10831;SDS011;5469;48.574;8.768;2022-08-19T07:50:44;9.07;;;5.50;;
10831;SDS011;5469;48.574;8.768;2022-08-19T07:53:20;9.27;;;5.77;;
10831;SDS011;5469;48.574;8.768;2022-08-19T07:55:57;8.17;;;5.37;;
10831;SDS011;5469;48.574;8.768;2022-08-19T07:58:36;8.27;;;5.50;;
10831;SDS011;5469;48.574;8.768;2022-08-19T08:01:16;7.70;;;4.67;;
10831;SDS011;5469;48.574;8.768;2022-08-19T08:03:54;5.40;;;4.47;;
10831;SDS011;5469;48.574;8.768;2022-08-19T08:06:47;5.80;;;4.93;;
10831;SDS011;5469;48.574;8.768;2022-08-19T08:09:38;7.17;;;5.43;;
10831;SDS011;5469;48.574;8.768;2022-08-19T08:12:17;5.13;;;4.60;;
10831;SDS011;5469;48.574;8.768;2022-08-19T08:14:54;6.50;;;5.00;;
10831;SDS011;5469;48.574;8.768;2022-08-19T08:17:31;7.03;;;5.30;;
10831;SDS011;5469;48.574;8.768;2022-08-19T08:20:08;7.27;;;5.00;;
10831;SDS011;5469;48.574;8.768;2022-08-19T08:22:45;6.27;;;4.50;;
10831;SDS011;5469;48.574;8.768;2022-08-19T08:25:38;9.40;;;4.90;;
10831;SDS011;5469;48.574;8.768;2022-08-19T08:28:14;6.77;;;4.73;;
10831;SDS011;5469;48.574;8.768;2022-08-19T08:30:50;6.50;;;4.60;;
10831;SDS011;5469;48.574;8.768;2022-08-19T08:33:26;4.80;;;4.07;;
10831;SDS011;5469;48.574;8.768;2022-08-19T08:36:03;5.77;;;4.77;;
10831;SDS011;5469;48.574;8.768;2022-08-19T08:38:40;6.10;;;4.67;;
10831;SDS011;5469;48.574;8.768;2022-08-19T08:41:19;6.80;;;4.37;;
10831;SDS011;5469;48.574;8.768;2022-08-19T08:44:01;5.30;;;4.43;;
10831;SDS011;5469;48.574;8.768;2022-08-19T08:46:39;5.60;;;4.37;;
10831;SDS011;5469;48.574;8.768;2022-08-19T08:49:23;5.83;;;3.97;;
10831;SDS011;5469;48.574;8.768;2022-08-19T08:52:03;7.37;;;3.67;;
10831;SDS011;5469;48.574;8.768;2022-08-19T08:54:43;6.27;;;4.47;;
10831;SDS011;5469;48.574;8.768;2022-08-19T08:57:23;6.47;;;4.37;;
10831;SDS011;5469;48.574;8.768;2022-08-19T09:00:05;7.10;;;4.03;;
10831;SDS011;5469;48.574;8.768;2022-08-19T09:02:44;4.77;;;4.03;;
10831;SDS011;5469;48.574;8.768;2022-08-19T09:05:20;4.75;;;4.15;;
10831;SDS011;5469;48.574;8.768;2022-08-19T09:07:58;6.00;;;5.00;;
10831;SDS011;5469;48.574;8.768;2022-08-19T09:10:39;4.57;;;3.97;;
10831;SDS011;5469;48.574;8.768;2022-08-19T09:13:21;6.70;;;4.70;;
10831;SDS011;5469;48.574;8.768;2022-08-19T09:16:05;5.17;;;4.20;;
10831;SDS011;5469;48.574;8.768;2022-08-19T09:18:45;4.70;;;4.20;;
10831;SDS011;5469;48.574;8.768;2022-08-19T09:21:24;4.30;;;3.90;;
10831;SDS011;5469;48.574;8.768;2022-08-19T09:24:02;4.18;;;3.63;;
10831;SDS011;5469;48.574;8.768;2022-08-19T09:26:39;5.40;;;3.88;;
10831;SDS011;5469;48.574;8.768;2022-08-19T09:29:15;7.30;;;4.67;;
10831;SDS011;5469;48.574;8.768;2022-08-19T09:31:51;4.57;;;3.95;;
10831;SDS011;5469;48.574;8.768;2022-08-19T09:34:27;4.55;;;3.97;;
10831;SDS011;5469;48.574;8.768;2022-08-19T09:37:02;4.90;;;4.07;;
10831;SDS011;5469;48.574;8.768;2022-08-19T09:39:38;4.18;;;3.78;;
10831;SDS011;5469;48.574;8.768;2022-08-19T09:42:14;4.32;;;3.92;;
10831;SDS011;5469;48.574;8.768;2022-08-19T09:44:49;4.22;;;3.58;;
10831;SDS011;5469;48.574;8.768;2022-08-19T09:47:26;4.25;;;3.85;;
10831;SDS011;5469;48.574;8.768;2022-08-19T09:50:00;4.38;;;3.60;;
10831;SDS011;5469;48.574;8.768;2022-08-19T09:52:37;4.20;;;3.63;;
10831;SDS011;5469;48.574;8.768;2022-08-19T09:55:13;4.15;;;3.35;;
10831;SDS011;5469;48.574;8.768;2022-08-19T09:57:49;4.85;;;3.58;;
10831;SDS011;5469;48.574;8.768;2022-08-19T10:00:26;4.90;;;3.88;;
10831;SDS011;5469;48.574;8.768;2022-08-19T10:03:03;6.45;;;3.72;;
10831;SDS011;5469;48.574;8.768;2022-08-19T10:05:38;5.57;;;3.72;;
10831;SDS011;5469;48.574;8.768;2022-08-19T10:08:22;6.30;;;3.90;;
10831;SDS011;5469;48.574;8.768;2022-08-19T10:11:00;5.03;;;3.75;;
10831;SDS011;5469;48.574;8.768;2022-08-19T10:13:37;4.70;;;3.70;;
10831;SDS011;5469;48.574;8.768;2022-08-19T10:16:13;4.97;;;4.13;;
10831;SDS011;5469;48.574;8.768;2022-08-19T10:18:55;9.10;;;4.22;;
10831;SDS011;5469;48.574;8.768;2022-08-19T10:21:31;4.28;;;3.88;;
10831;SDS011;5469;48.574;8.768;2022-08-19T10:24:07;5.93;;;3.60;;
10831;SDS011;5469;48.574;8.768;2022-08-19T10:26:41;6.57;;;4.20;;
10831;SDS011;5469;48.574;8.768;2022-08-19T10:29:19;4.03;;;3.47;;
10831;SDS011;5469;48.574;8.768;2022-08-19T10:31:54;4.72;;;3.60;;
10831;SDS011;5469;48.574;8.768;2022-08-19T10:34:31;3.97;;;3.15;;
10831;SDS011;5469;48.574;8.768;2022-08-19T10:37:08;5.20;;;3.97;;
10831;SDS011;5469;48.574;8.768;2022-08-19T10:39:45;4.57;;;3.67;;
10831;SDS011;5469;48.574;8.768;2022-08-19T10:42:21;6.05;;;4.13;;
10831;SDS011;5469;48.574;8.768;2022-08-19T10:44:56;4.78;;;3.70;;
10831;SDS011;5469;48.574;8.768;2022-08-19T10:47:32;3.65;;;3.35;;
10831;SDS011;5469;48.574;8.768;2022-08-19T10:50:08;4.55;;;3.85;;
10831;SDS011;5469;48.574;8.768;2022-08-19T10:53:03;3.55;;;3.22;;
10831;SDS011;5469;48.574;8.768;2022-08-19T10:55:40;4.03;;;3.63;;
10831;SDS011;5469;48.574;8.768;2022-08-19T10:58:34;3.92;;;3.38;;
10831;SDS011;5469;48.574;8.768;2022-08-19T11:01:09;3.88;;;3.45;;
10831;SDS011;5469;48.574;8.768;2022-08-19T11:03:44;3.38;;;3.08;;
10831;SDS011;5469;48.574;8.768;2022-08-19T11:06:21;4.53;;;3.50;;
10831;SDS011;5469;48.574;8.768;2022-08-19T11:08:57;4.50;;;3.65;;
10831;SDS011;5469;48.574;8.768;2022-08-19T11:11:34;3.65;;;3.05;;
10831;SDS011;5469;48.574;8.768;2022-08-19T11:14:12;3.40;;;2.92;;
10831;SDS011;5469;48.574;8.768;2022-08-19T11:16:50;3.05;;;2.75;;
10831;SDS011;5469;48.574;8.768;2022-08-19T11:19:27;4.40;;;3.55;;
10831;SDS011;5469;48.574;8.768;2022-08-19T11:22:04;3.55;;;2.97;;
10831;SDS011;5469;48.574;8.768;2022-08-19T11:24:41;3.25;;;2.83;;
10831;SDS011;5469;48.574;8.768;2022-08-19T11:27:16;3.20;;;2.90;;
10831;SDS011;5469;48.574;8.768;2022-08-19T11:29:51;4.43;;;3.05;;
10831;SDS011;5469;48.574;8.768;2022-08-19T11:32:26;3.17;;;2.88;;
10831;SDS011;5469;48.574;8.768;2022-08-19T11:35:01;3.97;;;3.28;;
10831;SDS011;5469;48.574;8.768;2022-08-19T11:37:37;2.88;;;2.58;;
10831;SDS011;5469;48.574;8.768;2022-08-19T11:40:13;2.88;;;2.67;;
10831;SDS011;5469;48.574;8.768;2022-08-19T11:42:48;3.42;;;2.70;;
10831;SDS011;5469;48.574;8.768;2022-08-19T11:45:30;3.25;;;2.67;;
10831;SDS011;5469;48.574;8.768;2022-08-19T11:48:04;3.33;;;3.03;;
10831;SDS011;5469;48.574;8.768;2022-08-19T11:50:39;4.43;;;3.08;;
10831;SDS011;5469;48.574;8.768;2022-08-19T11:53:17;3.13;;;2.83;;
10831;SDS011;5469;48.574;8.768;2022-08-19T11:55:53;3.72;;;3.35;;
10831;SDS011;5469;48.574;8.768;2022-08-19T11:58:28;4.30;;;3.75;;
10831;SDS011;5469;48.574;8.768;2022-08-19T12:01:05;3.40;;;3.17;;
10831;SDS011;5469;48.574;8.768;2022-08-19T12:03:43;3.67;;;3.38;;
10831;SDS011;5469;48.574;8.768;2022-08-19T12:06:21;4.72;;;3.15;;
10831;SDS011;5469;48.574;8.768;2022-08-19T12:09:02;3.72;;;3.28;;
10831;SDS011;5469;48.574;8.768;2022-08-19T12:11:39;4.03;;;3.63;;
10831;SDS011;5469;48.574;8.768;2022-08-19T12:14:14;3.65;;;3.10;;
10831;SDS011;5469;48.574;8.768;2022-08-19T12:16:50;3.78;;;3.42;;
10831;SDS011;5469;48.574;8.768;2022-08-19T12:19:25;3.63;;;3.30;;
10831;SDS011;5469;48.574;8.768;2022-08-19T12:22:00;3.45;;;3.13;;
10831;SDS011;5469;48.574;8.768;2022-08-19T12:24:38;3.10;;;2.90;;
10831;SDS011;5469;48.574;8.768;2022-08-19T12:27:14;3.05;;;2.75;;
10831;SDS011;5469;48.574;8.768;2022-08-19T12:29:49;3.90;;;3.22;;
10831;SDS011;5469;48.574;8.768;2022-08-19T12:32:24;3.38;;;2.53;;
10831;SDS011;5469;48.574;8.768;2022-08-19T12:34:59;3.25;;;2.95;;
10831;SDS011;5469;48.574;8.768;2022-08-19T12:37:35;3.80;;;2.67;;
10831;SDS011;5469;48.574;8.768;2022-08-19T12:40:14;2.83;;;2.63;;
10831;SDS011;5469;48.574;8.768;2022-08-19T12:42:51;2.92;;;2.70;;
10831;SDS011;5469;48.574;8.768;2022-08-19T12:45:26;2.95;;;2.65;;
10831;SDS011;5469;48.574;8.768;2022-08-19T12:48:02;4.45;;;2.72;;
10831;SDS011;5469;48.574;8.768;2022-08-19T12:50:38;5.78;;;3.17;;
10831;SDS011;5469;48.574;8.768;2022-08-19T12:53:16;3.03;;;2.70;;
10831;SDS011;5469;48.574;8.768;2022-08-19T12:55:55;3.53;;;3.10;;
10831;SDS011;5469;48.574;8.768;2022-08-19T12:58:31;3.85;;;2.75;;
10831;SDS011;5469;48.574;8.768;2022-08-19T13:01:08;2.83;;;2.63;;
10831;SDS011;5469;48.574;8.768;2022-08-19T13:03:45;4.15;;;3.08;;
10831;SDS011;5469;48.574;8.768;2022-08-19T13:06:21;3.95;;;3.25;;
10831;SDS011;5469;48.574;8.768;2022-08-19T13:08:56;3.40;;;3.10;;
10831;SDS011;5469;48.574;8.768;2022-08-19T13:11:32;3.05;;;2.85;;
10831;SDS011;5469;48.574;8.768;2022-08-19T13:14:08;4.45;;;3.35;;
10831;SDS011;5469;48.574;8.768;2022-08-19T13:16:43;3.60;;;3.30;;
10831;SDS011;5469;48.574;8.768;2022-08-19T13:19:19;3.75;;;3.40;;
10831;SDS011;5469;48.574;8.768;2022-08-19T13:21:55;4.63;;;3.35;;
10831;SDS011;5469;48.574;8.768;2022-08-19T13:24:33;3.50;;;3.13;;
10831;SDS011;5469;48.574;8.768;2022-08-19T13:27:10;3.33;;;3.03;;
10831;SDS011;5469;48.574;8.768;2022-08-19T13:29:45;4.28;;;3.45;;
10831;SDS011;5469;48.574;8.768;2022-08-19T13:32:38;4.03;;;3.67;;
10831;SDS011;5469;48.574;8.768;2022-08-19T13:35:31;3.38;;;3.08;;
10831;SDS011;5469;48.574;8.768;2022-08-19T13:38:07;3.92;;;3.60;;
10831;SDS011;5469;48.574;8.768;2022-08-19T13:40:44;4.45;;;3.30;;
10831;SDS011;5469;48.574;8.768;2022-08-19T13:43:24;3.83;;;3.45;;
10831;SDS011;5469;48.574;8.768;2022-08-19T13:46:07;4.30;;;3.58;;
10831;SDS011;5469;48.574;8.768;2022-08-19T13:48:45;3.83;;;3.53;;
10831;SDS011;5469;48.574;8.768;2022-08-19T13:51:21;6.20;;;3.67;;
10831;SDS011;5469;48.574;8.768;2022-08-19T13:53:57;5.55;;;3.40;;
10831;SDS011;5469;48.574;8.768;2022-08-19T13:56:32;4.22;;;3.83;;
10831;SDS011;5469;48.574;8.768;2022-08-19T13:59:09;4.38;;;4.00;;
10831;SDS011;5469;48.574;8.768;2022-08-19T14:01:45;3.80;;;3.50;;
10831;SDS011;5469;48.574;8.768;2022-08-19T14:04:20;3.50;;;3.20;;
10831;SDS011;5469;48.574;8.768;2022-08-19T14:06:55;4.25;;;3.85;;
10831;SDS011;5469;48.574;8.768;2022-08-19T14:09:30;5.63;;;4.90;;
10831;SDS011;5469;48.574;8.768;2022-08-19T14:12:05;3.55;;;3.10;;
10831;SDS011;5469;48.574;8.768;2022-08-19T14:14:42;5.18;;;4.68;;
10831;SDS011;5469;48.574;8.768;2022-08-19T14:17:17;5.53;;;3.97;;
10831;SDS011;5469;48.574;8.768;2022-08-19T14:19:55;3.83;;;3.42;;
10831;SDS011;5469;48.574;8.768;2022-08-19T14:22:32;5.10;;;3.58;;
10831;SDS011;5469;48.574;8.768;2022-08-19T14:25:09;3.63;;;3.33;;
10831;SDS011;5469;48.574;8.768;2022-08-19T14:27:48;4.18;;;3.78;;
10831;SDS011;5469;48.574;8.768;2022-08-19T14:30:25;4.13;;;3.75;;
10831;SDS011;5469;48.574;8.768;2022-08-19T14:33:03;3.70;;;3.30;;
10831;SDS011;5469;48.574;8.768;2022-08-19T14:35:40;5.68;;;3.85;;
10831;SDS011;5469;48.574;8.768;2022-08-19T14:38:16;4.38;;;3.90;;
10831;SDS011;5469;48.574;8.768;2022-08-19T14:40:52;6.72;;;3.42;;
10831;SDS011;5469;48.574;8.768;2022-08-19T14:43:29;5.43;;;3.72;;
10831;SDS011;5469;48.574;8.768;2022-08-19T14:46:05;4.13;;;3.72;;
10831;SDS011;5469;48.574;8.768;2022-08-19T14:48:42;4.28;;;3.72;;
10831;SDS011;5469;48.574;8.768;2022-08-19T14:51:18;4.15;;;3.75;;
10831;SDS011;5469;48.574;8.768;2022-08-19T14:53:54;4.32;;;3.92;;
10831;SDS011;5469;48.574;8.768;2022-08-19T14:56:29;4.10;;;3.70;;
10831;SDS011;5469;48.574;8.768;2022-08-19T14:59:04;3.80;;;3.50;;
10831;SDS011;5469;48.574;8.768;2022-08-19T15:01:41;6.65;;;3.60;;
10831;SDS011;5469;48.574;8.768;2022-08-19T15:04:16;3.42;;;3.13;;
10831;SDS011;5469;48.574;8.768;2022-08-19T15:06:51;4.40;;;3.80;;
10831;SDS011;5469;48.574;8.768;2022-08-19T15:09:26;3.60;;;3.30;;
10831;SDS011;5469;48.574;8.768;2022-08-19T15:12:01;4.05;;;3.50;;
10831;SDS011;5469;48.574;8.768;2022-08-19T15:14:37;3.30;;;3.00;;
10831;SDS011;5469;48.574;8.768;2022-08-19T15:17:16;3.28;;;2.97;;
10831;SDS011;5469;48.574;8.768;2022-08-19T15:19:51;4.50;;;3.47;;
10831;SDS011;5469;48.574;8.768;2022-08-19T15:22:27;3.40;;;3.08;;
10831;SDS011;5469;48.574;8.768;2022-08-19T15:25:02;4.30;;;3.20;;
10831;SDS011;5469;48.574;8.768;2022-08-19T15:27:40;3.60;;;3.30;;
10831;SDS011;5469;48.574;8.768;2022-08-19T15:30:18;4.68;;;3.08;;
10831;SDS011;5469;48.574;8.768;2022-08-19T15:32:56;3.42;;;3.13;;
10831;SDS011;5469;48.574;8.768;2022-08-19T15:35:32;3.78;;;3.00;;
10831;SDS011;5469;48.574;8.768;2022-08-19T15:38:11;3.92;;;2.88;;
10831;SDS011;5469;48.574;8.768;2022-08-19T15:40:47;3.13;;;2.88;;
10831;SDS011;5469;48.574;8.768;2022-08-19T15:43:23;2.70;;;2.50;;
10831;SDS011;5469;48.574;8.768;2022-08-19T15:45:58;3.20;;;2.90;;
10831;SDS011;5469;48.574;8.768;2022-08-19T15:48:35;4.65;;;2.90;;
10831;SDS011;5469;48.574;8.768;2022-08-19T15:51:10;2.72;;;2.28;;
10831;SDS011;5469;48.574;8.768;2022-08-19T15:53:46;3.00;;;2.58;;
10831;SDS011;5469;48.574;8.768;2022-08-19T15:56:21;3.88;;;2.80;;
10831;SDS011;5469;48.574;8.768;2022-08-19T15:58:56;3.10;;;2.90;;